DFSSE EKCH-EPWA
Flight info
| Callsign | DFSSE |
|---|---|
| Flight time | 1h 50m |
| Altitude | 31000 |
| Route | SIMEG8A SIMEG Z491 TELMO DCT KOLOB N195 ELPOL Y100 MALOX L621 GRUDA N191 SORIX SORIX6U |
| Aircraft | TBM8/L-SDFGRWY/S |
Departure
| Time | 2026-04-30 21:00 |
|---|---|
| Airport | Copenhagen Kastrup Airport (EKCH) |
Arrival
| Time | 2026-04-30 22:50 |
|---|---|
| Airport | Warsaw Chopin Airport (EPWA) |
| Time | Latitude | Longitude | Altitude | Speed | Heading |
|---|---|---|---|---|---|
| 2026-04-30 20:46 | 55.60803 | 12.65465 | 20 ft | 0 kts | 224° |
| 2026-04-30 20:55 | 55.60803 | 12.65464 | 20 ft | 1 kts | 226° |
| 2026-04-30 20:56 | 55.60952 | 12.65423 | 21 ft | 20 kts | 0° |
| 2026-04-30 20:56 | 55.61054 | 12.65405 | 18 ft | 4 kts | 271° |
| 2026-04-30 20:56 | 55.61014 | 12.65059 | 18 ft | 24 kts | 276° |
| 2026-04-30 20:57 | 55.61018 | 12.64893 | 15 ft | 9 kts | 271° |
| 2026-04-30 20:57 | 55.61053 | 12.64754 | 16 ft | 14 kts | 334° |
| 2026-04-30 20:57 | 55.61173 | 12.64738 | 17 ft | 19 kts | 359° |
| 2026-04-30 20:58 | 55.61252 | 12.64764 | 17 ft | 0 kts | 39° |
| 2026-04-30 20:58 | 55.61407 | 12.65001 | 16 ft | 57 kts | 41° |
| 2026-04-30 20:59 | 55.62277 | 12.66303 | 233 ft | 89 kts | 35° |
| 2026-04-30 20:59 | 55.62737 | 12.67066 | 406 ft | 96 kts | 44° |
| 2026-04-30 21:00 | 55.63987 | 12.69089 | 1003 ft | 140 kts | 37° |
| 2026-04-30 21:00 | 55.65431 | 12.71191 | 2263 ft | 134 kts | 36° |
| 2026-04-30 21:01 | 55.66837 | 12.73352 | 3478 ft | 134 kts | 39° |
| 2026-04-30 21:01 | 55.67550 | 12.74427 | 4067 ft | 135 kts | 38° |
| 2026-04-30 21:01 | 55.68998 | 12.76555 | 5218 ft | 136 kts | 38° |
| 2026-04-30 21:02 | 55.69727 | 12.77633 | 5789 ft | 137 kts | 38° |
| 2026-04-30 21:02 | 55.70448 | 12.78706 | 6356 ft | 137 kts | 39° |
| 2026-04-30 21:02 | 55.71179 | 12.79806 | 6917 ft | 138 kts | 39° |
| 2026-04-30 21:02 | 55.71913 | 12.80909 | 7446 ft | 139 kts | 40° |
| 2026-04-30 21:03 | 55.72436 | 12.82351 | 7969 ft | 143 kts | 72° |
| 2026-04-30 21:03 | 55.72399 | 12.84129 | 8476 ft | 149 kts | 105° |
| 2026-04-30 21:03 | 55.71785 | 12.85629 | 8976 ft | 156 kts | 141° |
| 2026-04-30 21:03 | 55.70774 | 12.86381 | 9491 ft | 159 kts | 160° |
| 2026-04-30 21:04 | 55.69727 | 12.87045 | 9985 ft | 161 kts | 156° |
| 2026-04-30 21:04 | 55.68681 | 12.87755 | 10481 ft | 162 kts | 156° |
| 2026-04-30 21:04 | 55.66555 | 12.89144 | 11469 ft | 164 kts | 157° |
| 2026-04-30 21:05 | 55.65480 | 12.89832 | 11954 ft | 165 kts | 156° |
| 2026-04-30 21:05 | 55.64397 | 12.90526 | 12429 ft | 166 kts | 156° |
| 2026-04-30 21:05 | 55.63302 | 12.91224 | 12891 ft | 167 kts | 157° |
| 2026-04-30 21:05 | 55.62212 | 12.91902 | 13341 ft | 169 kts | 156° |
| 2026-04-30 21:06 | 55.61070 | 12.92435 | 13777 ft | 173 kts | 174° |
| 2026-04-30 21:06 | 55.59888 | 12.91994 | 14211 ft | 177 kts | 207° |
| 2026-04-30 21:06 | 55.58942 | 12.90606 | 14657 ft | 178 kts | 229° |
| 2026-04-30 21:06 | 55.58089 | 12.89012 | 15089 ft | 179 kts | 227° |
| 2026-04-30 21:07 | 55.57212 | 12.87439 | 15512 ft | 180 kts | 227° |
| 2026-04-30 21:07 | 55.56332 | 12.85846 | 15929 ft | 182 kts | 227° |
| 2026-04-30 21:07 | 55.55447 | 12.84238 | 16345 ft | 183 kts | 227° |
| 2026-04-30 21:07 | 55.54562 | 12.82624 | 16774 ft | 183 kts | 227° |
| 2026-04-30 21:08 | 55.53659 | 12.80976 | 17074 ft | 192 kts | 227° |
| 2026-04-30 21:08 | 55.52726 | 12.79263 | 17477 ft | 192 kts | 226° |
| 2026-04-30 21:08 | 55.51644 | 12.77959 | 18007 ft | 185 kts | 201° |
| 2026-04-30 21:08 | 55.50392 | 12.77495 | 18366 ft | 187 kts | 179° |
| 2026-04-30 21:09 | 55.49093 | 12.77756 | 18688 ft | 189 kts | 168° |
| 2026-04-30 21:09 | 55.47781 | 12.78045 | 19072 ft | 190 kts | 171° |
| 2026-04-30 21:09 | 55.46468 | 12.78300 | 19483 ft | 189 kts | 171° |
| 2026-04-30 21:09 | 55.45170 | 12.78567 | 19888 ft | 187 kts | 171° |
| 2026-04-30 21:10 | 55.43872 | 12.78841 | 20245 ft | 188 kts | 171° |
| 2026-04-30 21:10 | 55.42567 | 12.79119 | 20583 ft | 189 kts | 171° |
| 2026-04-30 21:10 | 55.41257 | 12.79396 | 20925 ft | 190 kts | 171° |
| 2026-04-30 21:10 | 55.39936 | 12.79678 | 21257 ft | 192 kts | 171° |
| 2026-04-30 21:11 | 55.38609 | 12.79961 | 21587 ft | 193 kts | 171° |
| 2026-04-30 21:11 | 55.37270 | 12.80248 | 21915 ft | 194 kts | 171° |
| 2026-04-30 21:11 | 55.35925 | 12.80536 | 22239 ft | 195 kts | 171° |
| 2026-04-30 21:11 | 55.34625 | 12.81069 | 22551 ft | 193 kts | 152° |
| 2026-04-30 21:12 | 55.33541 | 12.82440 | 22861 ft | 189 kts | 128° |
| 2026-04-30 21:12 | 55.32858 | 12.84332 | 23160 ft | 184 kts | 107° |
| 2026-04-30 21:12 | 55.32576 | 12.86493 | 23464 ft | 182 kts | 95° |
| 2026-04-30 21:12 | 55.32328 | 12.88676 | 23759 ft | 183 kts | 98° |
| 2026-04-30 21:13 | 55.32056 | 12.90872 | 24046 ft | 184 kts | 97° |
| 2026-04-30 21:13 | 55.31789 | 12.93080 | 24324 ft | 185 kts | 97° |
| 2026-04-30 21:13 | 55.31520 | 12.95296 | 24599 ft | 186 kts | 97° |
| 2026-04-30 21:13 | 55.31262 | 12.97523 | 24867 ft | 187 kts | 97° |
| 2026-04-30 21:14 | 55.31004 | 12.99765 | 25135 ft | 188 kts | 97° |
| 2026-04-30 21:14 | 55.30743 | 13.02016 | 25400 ft | 188 kts | 97° |
| 2026-04-30 21:14 | 55.30480 | 13.04272 | 25659 ft | 189 kts | 97° |
| 2026-04-30 21:14 | 55.30213 | 13.06539 | 25916 ft | 190 kts | 97° |
| 2026-04-30 21:15 | 55.29945 | 13.08814 | 26168 ft | 191 kts | 97° |
| 2026-04-30 21:15 | 55.29676 | 13.11100 | 26413 ft | 192 kts | 97° |
| 2026-04-30 21:15 | 55.29403 | 13.13396 | 26667 ft | 192 kts | 97° |
| 2026-04-30 21:15 | 55.29129 | 13.15699 | 26907 ft | 193 kts | 97° |
| 2026-04-30 21:16 | 55.28854 | 13.18011 | 27141 ft | 194 kts | 97° |
| 2026-04-30 21:16 | 55.28579 | 13.20327 | 27384 ft | 194 kts | 97° |
| 2026-04-30 21:16 | 55.28302 | 13.22658 | 27616 ft | 196 kts | 97° |
| 2026-04-30 21:16 | 55.28023 | 13.24992 | 27855 ft | 196 kts | 97° |
| 2026-04-30 21:17 | 55.27743 | 13.27336 | 28081 ft | 197 kts | 97° |
| 2026-04-30 21:17 | 55.27461 | 13.29686 | 28303 ft | 197 kts | 97° |
| 2026-04-30 21:17 | 55.27182 | 13.32012 | 28514 ft | 198 kts | 97° |
| 2026-04-30 21:17 | 55.26897 | 13.34377 | 28736 ft | 199 kts | 97° |
| 2026-04-30 21:18 | 55.26611 | 13.36754 | 28946 ft | 199 kts | 97° |
| 2026-04-30 21:18 | 55.26324 | 13.39134 | 29160 ft | 200 kts | 97° |
| 2026-04-30 21:18 | 55.26036 | 13.41523 | 29365 ft | 201 kts | 97° |
| 2026-04-30 21:18 | 55.25749 | 13.43918 | 29567 ft | 201 kts | 97° |
| 2026-04-30 21:19 | 55.25459 | 13.46323 | 29767 ft | 202 kts | 97° |
| 2026-04-30 21:19 | 55.25162 | 13.48737 | 29963 ft | 203 kts | 99° |
| 2026-04-30 21:19 | 55.24689 | 13.51095 | 30148 ft | 208 kts | 111° |
| 2026-04-30 21:19 | 55.23937 | 13.53280 | 30341 ft | 210 kts | 116° |
| 2026-04-30 21:20 | 55.23214 | 13.55506 | 30524 ft | 210 kts | 114° |
| 2026-04-30 21:20 | 55.22523 | 13.57768 | 30706 ft | 211 kts | 113° |
| 2026-04-30 21:20 | 55.21833 | 13.60043 | 30879 ft | 212 kts | 113° |
| 2026-04-30 21:20 | 55.21135 | 13.62321 | 31071 ft | 213 kts | 113° |
| 2026-04-30 21:21 | 55.20428 | 13.64608 | 31236 ft | 214 kts | 114° |
| 2026-04-30 21:21 | 55.19710 | 13.66892 | 31371 ft | 217 kts | 114° |
| 2026-04-30 21:21 | 55.18175 | 13.71693 | 31399 ft | 234 kts | 115° |
| 2026-04-30 21:22 | 55.17381 | 13.74190 | 31402 ft | 235 kts | 115° |
| 2026-04-30 21:22 | 55.15010 | 13.81699 | 31396 ft | 235 kts | 115° |
| 2026-04-30 21:23 | 55.14219 | 13.84202 | 31395 ft | 235 kts | 115° |
| 2026-04-30 21:23 | 55.13425 | 13.86704 | 31394 ft | 235 kts | 115° |
| 2026-04-30 21:23 | 55.12100 | 13.90865 | 31394 ft | 236 kts | 115° |
| 2026-04-30 21:24 | 55.11305 | 13.93366 | 31394 ft | 235 kts | 114° |
| 2026-04-30 21:24 | 55.10268 | 13.96697 | 31389 ft | 235 kts | 114° |
| 2026-04-30 21:24 | 55.09470 | 13.99194 | 31386 ft | 236 kts | 115° |
| 2026-04-30 21:24 | 55.08927 | 14.00881 | 31386 ft | 236 kts | 115° |
| 2026-04-30 21:25 | 55.07320 | 14.05868 | 31385 ft | 236 kts | 114° |
| 2026-04-30 21:25 | 55.06516 | 14.08366 | 31384 ft | 236 kts | 114° |
| 2026-04-30 21:25 | 55.05715 | 14.10860 | 31384 ft | 236 kts | 114° |
| 2026-04-30 21:26 | 55.04209 | 14.15883 | 31384 ft | 234 kts | 110° |
| 2026-04-30 21:26 | 55.03519 | 14.18455 | 31384 ft | 234 kts | 110° |
| 2026-04-30 21:27 | 55.02149 | 14.23604 | 31378 ft | 234 kts | 110° |
| 2026-04-30 21:27 | 55.01454 | 14.26169 | 31376 ft | 234 kts | 110° |
| 2026-04-30 21:27 | 55.00754 | 14.28727 | 31376 ft | 234 kts | 110° |
| 2026-04-30 21:28 | 54.99342 | 14.33847 | 31375 ft | 234 kts | 110° |
| 2026-04-30 21:28 | 54.98635 | 14.36400 | 31375 ft | 234 kts | 110° |
| 2026-04-30 21:28 | 54.97217 | 14.41502 | 31375 ft | 234 kts | 110° |
| 2026-04-30 21:29 | 54.96508 | 14.44049 | 31375 ft | 234 kts | 110° |
| 2026-04-30 21:29 | 54.94375 | 14.51676 | 31375 ft | 233 kts | 111° |
| 2026-04-30 21:30 | 54.92955 | 14.56752 | 31375 ft | 233 kts | 110° |
| 2026-04-30 21:31 | 54.90822 | 14.64348 | 31376 ft | 233 kts | 111° |
| 2026-04-30 21:31 | 54.89399 | 14.69403 | 31375 ft | 233 kts | 110° |
| 2026-04-30 21:32 | 54.87984 | 14.74416 | 31375 ft | 233 kts | 111° |
| 2026-04-30 21:32 | 54.87271 | 14.76934 | 31375 ft | 232 kts | 110° |
| 2026-04-30 21:32 | 54.86558 | 14.79454 | 31376 ft | 232 kts | 111° |
| 2026-04-30 21:32 | 54.85846 | 14.81967 | 31376 ft | 232 kts | 111° |
| 2026-04-30 21:33 | 54.85133 | 14.84481 | 31375 ft | 232 kts | 110° |
| 2026-04-30 21:33 | 54.83704 | 14.89514 | 31376 ft | 232 kts | 110° |
| 2026-04-30 21:33 | 54.82987 | 14.92033 | 31376 ft | 233 kts | 111° |
| 2026-04-30 21:34 | 54.82270 | 14.94547 | 31376 ft | 233 kts | 111° |
| 2026-04-30 21:34 | 54.80766 | 14.99532 | 31376 ft | 234 kts | 113° |
| 2026-04-30 21:34 | 54.79988 | 15.02005 | 31376 ft | 234 kts | 113° |
| 2026-04-30 21:35 | 54.79209 | 15.04475 | 31376 ft | 234 kts | 113° |
| 2026-04-30 21:35 | 54.78432 | 15.06946 | 31376 ft | 233 kts | 113° |
| 2026-04-30 21:35 | 54.77657 | 15.09414 | 31376 ft | 233 kts | 112° |
| 2026-04-30 21:35 | 54.76884 | 15.11880 | 31376 ft | 233 kts | 112° |
| 2026-04-30 21:36 | 54.76111 | 15.14349 | 31376 ft | 233 kts | 112° |
| 2026-04-30 21:36 | 54.75340 | 15.16814 | 31376 ft | 233 kts | 112° |
| 2026-04-30 21:37 | 54.73034 | 15.24182 | 31379 ft | 233 kts | 112° |
| 2026-04-30 21:37 | 54.72260 | 15.26643 | 31382 ft | 233 kts | 112° |
| 2026-04-30 21:37 | 54.71485 | 15.29108 | 31384 ft | 233 kts | 112° |
| 2026-04-30 21:37 | 54.70710 | 15.31575 | 31384 ft | 233 kts | 112° |
| 2026-04-30 21:38 | 54.69933 | 15.34043 | 31385 ft | 234 kts | 112° |
| 2026-04-30 21:38 | 54.69159 | 15.36507 | 31385 ft | 233 kts | 112° |
| 2026-04-30 21:38 | 54.68381 | 15.38974 | 31385 ft | 234 kts | 113° |
| 2026-04-30 21:38 | 54.67601 | 15.41444 | 31385 ft | 234 kts | 112° |
| 2026-04-30 21:39 | 54.66821 | 15.43912 | 31385 ft | 234 kts | 112° |
| 2026-04-30 21:39 | 54.66042 | 15.46376 | 31385 ft | 234 kts | 112° |
| 2026-04-30 21:39 | 54.65260 | 15.48849 | 31381 ft | 234 kts | 112° |
| 2026-04-30 21:39 | 54.64477 | 15.51316 | 31378 ft | 234 kts | 112° |
| 2026-04-30 21:40 | 54.63694 | 15.53784 | 31377 ft | 234 kts | 112° |
| 2026-04-30 21:40 | 54.62911 | 15.56253 | 31376 ft | 234 kts | 112° |
| 2026-04-30 21:40 | 54.62127 | 15.58723 | 31376 ft | 235 kts | 112° |
| 2026-04-30 21:40 | 54.61341 | 15.61191 | 31376 ft | 235 kts | 112° |
| 2026-04-30 21:41 | 54.60522 | 15.63640 | 31376 ft | 236 kts | 115° |
| 2026-04-30 21:41 | 54.59613 | 15.66019 | 31376 ft | 238 kts | 118° |
| 2026-04-30 21:41 | 54.58680 | 15.68369 | 31376 ft | 238 kts | 118° |
| 2026-04-30 21:41 | 54.57750 | 15.70722 | 31376 ft | 237 kts | 118° |
| 2026-04-30 21:42 | 54.56821 | 15.73068 | 31381 ft | 237 kts | 118° |
| 2026-04-30 21:42 | 54.55890 | 15.75416 | 31383 ft | 237 kts | 118° |
| 2026-04-30 21:42 | 54.54974 | 15.77733 | 31384 ft | 237 kts | 118° |
| 2026-04-30 21:42 | 54.54045 | 15.80079 | 31384 ft | 237 kts | 118° |
| 2026-04-30 21:43 | 54.53114 | 15.82429 | 31385 ft | 237 kts | 118° |
| 2026-04-30 21:43 | 54.52183 | 15.84775 | 31385 ft | 238 kts | 118° |
| 2026-04-30 21:43 | 54.51250 | 15.87124 | 31385 ft | 238 kts | 118° |
| 2026-04-30 21:43 | 54.50315 | 15.89475 | 31385 ft | 238 kts | 118° |
| 2026-04-30 21:44 | 54.49383 | 15.91818 | 31385 ft | 238 kts | 118° |
| 2026-04-30 21:44 | 54.48450 | 15.94162 | 31385 ft | 238 kts | 118° |
| 2026-04-30 21:44 | 54.47515 | 15.96506 | 31385 ft | 238 kts | 118° |
| 2026-04-30 21:44 | 54.46577 | 15.98851 | 31385 ft | 238 kts | 118° |
| 2026-04-30 21:45 | 54.45639 | 16.01193 | 31385 ft | 238 kts | 118° |
| 2026-04-30 21:45 | 54.44702 | 16.03535 | 31385 ft | 238 kts | 118° |
| 2026-04-30 21:45 | 54.43761 | 16.05883 | 31385 ft | 238 kts | 118° |
| 2026-04-30 21:45 | 54.42824 | 16.08222 | 31385 ft | 238 kts | 118° |
| 2026-04-30 21:46 | 54.41887 | 16.10559 | 31385 ft | 238 kts | 118° |
| 2026-04-30 21:46 | 54.40947 | 16.12900 | 31385 ft | 238 kts | 118° |
| 2026-04-30 21:46 | 54.40015 | 16.15218 | 31385 ft | 239 kts | 118° |
| 2026-04-30 21:46 | 54.39073 | 16.17561 | 31385 ft | 239 kts | 118° |
| 2026-04-30 21:47 | 54.38131 | 16.19902 | 31385 ft | 239 kts | 118° |
| 2026-04-30 21:47 | 54.37186 | 16.22248 | 31385 ft | 239 kts | 118° |
| 2026-04-30 21:47 | 54.36243 | 16.24590 | 31385 ft | 239 kts | 118° |
| 2026-04-30 21:47 | 54.35297 | 16.26929 | 31385 ft | 239 kts | 118° |
| 2026-04-30 21:48 | 54.34351 | 16.29267 | 31385 ft | 239 kts | 118° |
| 2026-04-30 21:48 | 54.33403 | 16.31610 | 31386 ft | 239 kts | 118° |
| 2026-04-30 21:48 | 54.32455 | 16.33949 | 31386 ft | 239 kts | 118° |
| 2026-04-30 21:48 | 54.31505 | 16.36291 | 31388 ft | 239 kts | 118° |
| 2026-04-30 21:49 | 54.30555 | 16.38631 | 31387 ft | 239 kts | 118° |
| 2026-04-30 21:49 | 54.29606 | 16.40971 | 31388 ft | 239 kts | 118° |
| 2026-04-30 21:49 | 54.28655 | 16.43309 | 31390 ft | 239 kts | 118° |
| 2026-04-30 21:49 | 54.27706 | 16.45642 | 31389 ft | 239 kts | 118° |
| 2026-04-30 21:50 | 54.26760 | 16.47979 | 31392 ft | 239 kts | 116° |
| 2026-04-30 21:50 | 54.26081 | 16.50506 | 31390 ft | 230 kts | 98° |
| 2026-04-30 21:50 | 54.25904 | 16.53178 | 31392 ft | 224 kts | 86° |
| 2026-04-30 21:50 | 54.25818 | 16.55851 | 31390 ft | 226 kts | 88° |
| 2026-04-30 21:51 | 54.25702 | 16.58527 | 31387 ft | 226 kts | 88° |
| 2026-04-30 21:51 | 54.25580 | 16.61214 | 31380 ft | 226 kts | 88° |
| 2026-04-30 21:51 | 54.25461 | 16.63900 | 31377 ft | 226 kts | 88° |
| 2026-04-30 21:51 | 54.25343 | 16.66552 | 31377 ft | 227 kts | 88° |
| 2026-04-30 21:52 | 54.25227 | 16.69242 | 31376 ft | 227 kts | 88° |
| 2026-04-30 21:52 | 54.25111 | 16.71931 | 31375 ft | 227 kts | 88° |
| 2026-04-30 21:52 | 54.24997 | 16.74618 | 31374 ft | 227 kts | 88° |
| 2026-04-30 21:52 | 54.24883 | 16.77309 | 31374 ft | 227 kts | 88° |
| 2026-04-30 21:53 | 54.24768 | 16.79994 | 31374 ft | 226 kts | 88° |
| 2026-04-30 21:53 | 54.24653 | 16.82681 | 31376 ft | 226 kts | 88° |
| 2026-04-30 21:53 | 54.24537 | 16.85369 | 31376 ft | 227 kts | 88° |
| 2026-04-30 21:53 | 54.24293 | 16.88037 | 31373 ft | 231 kts | 101° |
| 2026-04-30 21:54 | 54.23523 | 16.90506 | 31375 ft | 241 kts | 120° |
| 2026-04-30 21:54 | 54.22559 | 16.92835 | 31378 ft | 239 kts | 116° |
| 2026-04-30 21:54 | 54.21680 | 16.95250 | 31377 ft | 239 kts | 114° |
| 2026-04-30 21:54 | 54.20824 | 16.97682 | 31377 ft | 239 kts | 114° |
| 2026-04-30 21:55 | 54.19965 | 17.00117 | 31377 ft | 240 kts | 114° |
| 2026-04-30 21:55 | 54.19094 | 17.02552 | 31379 ft | 240 kts | 115° |
| 2026-04-30 21:55 | 54.18212 | 17.04978 | 31377 ft | 241 kts | 115° |
| 2026-04-30 21:55 | 54.17325 | 17.07405 | 31376 ft | 241 kts | 115° |
| 2026-04-30 21:56 | 54.16429 | 17.09847 | 31376 ft | 242 kts | 115° |
| 2026-04-30 21:56 | 54.15544 | 17.12251 | 31377 ft | 243 kts | 115° |
| 2026-04-30 21:56 | 54.14643 | 17.14688 | 31378 ft | 243 kts | 115° |
| 2026-04-30 21:56 | 54.13737 | 17.17132 | 31381 ft | 244 kts | 115° |
| 2026-04-30 21:57 | 54.12830 | 17.19579 | 31380 ft | 244 kts | 115° |
| 2026-04-30 21:57 | 54.11922 | 17.22031 | 31380 ft | 245 kts | 115° |
| 2026-04-30 21:57 | 54.11008 | 17.24487 | 31379 ft | 245 kts | 115° |
| 2026-04-30 21:57 | 54.10093 | 17.26941 | 31378 ft | 246 kts | 115° |
| 2026-04-30 21:58 | 54.09178 | 17.29400 | 31378 ft | 246 kts | 115° |
| 2026-04-30 21:58 | 54.08259 | 17.31863 | 31380 ft | 246 kts | 115° |
| 2026-04-30 21:58 | 54.07341 | 17.34328 | 31381 ft | 247 kts | 115° |
| 2026-04-30 21:58 | 54.06418 | 17.36800 | 31382 ft | 248 kts | 115° |
| 2026-04-30 21:59 | 54.05491 | 17.39278 | 31380 ft | 248 kts | 115° |
| 2026-04-30 21:59 | 54.04565 | 17.41753 | 31377 ft | 249 kts | 115° |
| 2026-04-30 21:59 | 54.03635 | 17.44234 | 31375 ft | 249 kts | 115° |
| 2026-04-30 22:00 | 54.01774 | 17.49197 | 31376 ft | 249 kts | 115° |
| 2026-04-30 22:00 | 53.99911 | 17.54159 | 31375 ft | 249 kts | 115° |
| 2026-04-30 22:00 | 53.98978 | 17.56641 | 31375 ft | 249 kts | 115° |
| 2026-04-30 22:01 | 53.98045 | 17.59115 | 31376 ft | 249 kts | 115° |
| 2026-04-30 22:01 | 53.97110 | 17.61596 | 31375 ft | 249 kts | 115° |
| 2026-04-30 22:01 | 53.96175 | 17.64072 | 31375 ft | 249 kts | 115° |
| 2026-04-30 22:01 | 53.95239 | 17.66553 | 31375 ft | 249 kts | 115° |
| 2026-04-30 22:02 | 53.94304 | 17.69032 | 31374 ft | 249 kts | 115° |
| 2026-04-30 22:02 | 53.93366 | 17.71511 | 31374 ft | 250 kts | 115° |
| 2026-04-30 22:02 | 53.92427 | 17.73988 | 31378 ft | 250 kts | 115° |
| 2026-04-30 22:02 | 53.91487 | 17.76467 | 31378 ft | 250 kts | 115° |
| 2026-04-30 22:03 | 53.90556 | 17.78915 | 31376 ft | 250 kts | 115° |
| 2026-04-30 22:03 | 53.89602 | 17.81424 | 31375 ft | 250 kts | 115° |
| 2026-04-30 22:03 | 53.88658 | 17.83906 | 31376 ft | 250 kts | 115° |
| 2026-04-30 22:03 | 53.87727 | 17.86351 | 31375 ft | 250 kts | 115° |
| 2026-04-30 22:04 | 53.86783 | 17.88827 | 31374 ft | 250 kts | 115° |
| 2026-04-30 22:04 | 53.85837 | 17.91305 | 31374 ft | 250 kts | 115° |
| 2026-04-30 22:04 | 53.83940 | 17.96264 | 31374 ft | 251 kts | 115° |
| 2026-04-30 22:05 | 53.82991 | 17.98742 | 31376 ft | 251 kts | 115° |
| 2026-04-30 22:05 | 53.82043 | 18.01221 | 31377 ft | 251 kts | 115° |
| 2026-04-30 22:05 | 53.81094 | 18.03698 | 31375 ft | 251 kts | 115° |
| 2026-04-30 22:05 | 53.80145 | 18.06175 | 31375 ft | 251 kts | 115° |
| 2026-04-30 22:06 | 53.79196 | 18.08647 | 31374 ft | 251 kts | 115° |
| 2026-04-30 22:06 | 53.77291 | 18.13598 | 31375 ft | 251 kts | 115° |
| 2026-04-30 22:06 | 53.76339 | 18.16068 | 31375 ft | 251 kts | 115° |
| 2026-04-30 22:07 | 53.75386 | 18.18537 | 31374 ft | 250 kts | 115° |
| 2026-04-30 22:07 | 53.74433 | 18.20998 | 31376 ft | 250 kts | 115° |
| 2026-04-30 22:07 | 53.73482 | 18.23460 | 31377 ft | 250 kts | 115° |
| 2026-04-30 22:07 | 53.72531 | 18.25922 | 31375 ft | 250 kts | 115° |
| 2026-04-30 22:08 | 53.71581 | 18.28383 | 31375 ft | 250 kts | 115° |
| 2026-04-30 22:08 | 53.70640 | 18.30810 | 31375 ft | 250 kts | 115° |
| 2026-04-30 22:08 | 53.69685 | 18.33268 | 31377 ft | 250 kts | 115° |
| 2026-04-30 22:08 | 53.68731 | 18.35725 | 31377 ft | 250 kts | 115° |
| 2026-04-30 22:09 | 53.67776 | 18.38176 | 31377 ft | 250 kts | 115° |
| 2026-04-30 22:09 | 53.66820 | 18.40634 | 31376 ft | 250 kts | 115° |
| 2026-04-30 22:09 | 53.65865 | 18.43088 | 31374 ft | 250 kts | 115° |
| 2026-04-30 22:09 | 53.64910 | 18.45539 | 31375 ft | 250 kts | 115° |
| 2026-04-30 22:10 | 53.64275 | 18.47164 | 31376 ft | 250 kts | 115° |
| 2026-04-30 22:10 | 53.63316 | 18.49613 | 31378 ft | 250 kts | 115° |
| 2026-04-30 22:10 | 53.62360 | 18.52057 | 31377 ft | 250 kts | 115° |
| 2026-04-30 22:10 | 53.61404 | 18.54499 | 31373 ft | 250 kts | 115° |
| 2026-04-30 22:11 | 53.59493 | 18.59381 | 31366 ft | 249 kts | 115° |
| 2026-04-30 22:11 | 53.58537 | 18.61816 | 31367 ft | 249 kts | 115° |
| 2026-04-30 22:11 | 53.57582 | 18.64249 | 31368 ft | 249 kts | 115° |
| 2026-04-30 22:12 | 53.56626 | 18.66680 | 31370 ft | 249 kts | 115° |
| 2026-04-30 22:12 | 53.55669 | 18.69112 | 31370 ft | 249 kts | 115° |
| 2026-04-30 22:12 | 53.54712 | 18.71542 | 31368 ft | 249 kts | 115° |
| 2026-04-30 22:12 | 53.53753 | 18.73970 | 31366 ft | 249 kts | 115° |
| 2026-04-30 22:13 | 53.52791 | 18.76394 | 31367 ft | 250 kts | 116° |
| 2026-04-30 22:13 | 53.51652 | 18.78647 | 31366 ft | 257 kts | 128° |
| 2026-04-30 22:13 | 53.50214 | 18.80509 | 31366 ft | 263 kts | 136° |
| 2026-04-30 22:13 | 53.48749 | 18.82325 | 31366 ft | 261 kts | 134° |
| 2026-04-30 22:14 | 53.47310 | 18.84192 | 31368 ft | 261 kts | 134° |
| 2026-04-30 22:14 | 53.45875 | 18.86069 | 31367 ft | 262 kts | 134° |
| 2026-04-30 22:14 | 53.44458 | 18.87918 | 31368 ft | 262 kts | 134° |
| 2026-04-30 22:14 | 53.43020 | 18.89786 | 31368 ft | 262 kts | 134° |
| 2026-04-30 22:15 | 53.41572 | 18.91655 | 31366 ft | 262 kts | 134° |
| 2026-04-30 22:15 | 53.40125 | 18.93514 | 31367 ft | 262 kts | 134° |
| 2026-04-30 22:15 | 53.38674 | 18.95374 | 31367 ft | 262 kts | 134° |
| 2026-04-30 22:15 | 53.37224 | 18.97229 | 31367 ft | 262 kts | 134° |
| 2026-04-30 22:16 | 53.35774 | 18.99081 | 31367 ft | 262 kts | 134° |
| 2026-04-30 22:16 | 53.34322 | 19.00933 | 31367 ft | 262 kts | 134° |
| 2026-04-30 22:17 | 53.29968 | 19.06478 | 31365 ft | 262 kts | 134° |
| 2026-04-30 22:17 | 53.28514 | 19.08327 | 31365 ft | 262 kts | 134° |
| 2026-04-30 22:17 | 53.25606 | 19.12015 | 31365 ft | 262 kts | 134° |
| 2026-04-30 22:18 | 53.24154 | 19.13853 | 31365 ft | 262 kts | 134° |
| 2026-04-30 22:18 | 53.21251 | 19.17531 | 31365 ft | 262 kts | 134° |
| 2026-04-30 22:19 | 53.18345 | 19.21196 | 31365 ft | 261 kts | 134° |
| 2026-04-30 22:19 | 53.16892 | 19.23021 | 31366 ft | 261 kts | 134° |
| 2026-04-30 22:19 | 53.13983 | 19.26660 | 31366 ft | 261 kts | 134° |
| 2026-04-30 22:20 | 53.12530 | 19.28480 | 31367 ft | 261 kts | 134° |
| 2026-04-30 22:20 | 53.09623 | 19.32120 | 31369 ft | 262 kts | 134° |
| 2026-04-30 22:20 | 53.08183 | 19.33919 | 31370 ft | 262 kts | 134° |
| 2026-04-30 22:21 | 53.06727 | 19.35736 | 31370 ft | 262 kts | 134° |
| 2026-04-30 22:21 | 53.05270 | 19.37555 | 31371 ft | 262 kts | 134° |
| 2026-04-30 22:21 | 53.03811 | 19.39374 | 31372 ft | 262 kts | 134° |
| 2026-04-30 22:21 | 53.02352 | 19.41192 | 31369 ft | 262 kts | 134° |
| 2026-04-30 22:22 | 53.00884 | 19.43019 | 31248 ft | 267 kts | 134° |
| 2026-04-30 22:22 | 52.99337 | 19.44961 | 30756 ft | 291 kts | 135° |
| 2026-04-30 22:22 | 52.97660 | 19.47048 | 30258 ft | 311 kts | 136° |
| 2026-04-30 22:22 | 52.95866 | 19.49250 | 29700 ft | 330 kts | 136° |
| 2026-04-30 22:23 | 52.93995 | 19.51538 | 29088 ft | 335 kts | 136° |
| 2026-04-30 22:23 | 52.92124 | 19.53840 | 28470 ft | 335 kts | 136° |
| 2026-04-30 22:23 | 52.90250 | 19.56162 | 27850 ft | 337 kts | 137° |
| 2026-04-30 22:23 | 52.88374 | 19.58493 | 27233 ft | 338 kts | 136° |
| 2026-04-30 22:24 | 52.86492 | 19.60834 | 26602 ft | 338 kts | 137° |
| 2026-04-30 22:24 | 52.84608 | 19.63174 | 25978 ft | 340 kts | 137° |
| 2026-04-30 22:24 | 52.82717 | 19.65521 | 25347 ft | 340 kts | 137° |
| 2026-04-30 22:24 | 52.80814 | 19.67873 | 24728 ft | 341 kts | 137° |
| 2026-04-30 22:25 | 52.78905 | 19.70222 | 24103 ft | 343 kts | 138° |
| 2026-04-30 22:25 | 52.76994 | 19.72572 | 23477 ft | 343 kts | 138° |
| 2026-04-30 22:25 | 52.75075 | 19.74927 | 22877 ft | 343 kts | 138° |
| 2026-04-30 22:25 | 52.73159 | 19.77280 | 22326 ft | 344 kts | 138° |
| 2026-04-30 22:26 | 52.69419 | 19.82160 | 21275 ft | 338 kts | 127° |
| 2026-04-30 22:26 | 52.68180 | 19.85379 | 20875 ft | 331 kts | 113° |
| 2026-04-30 22:26 | 52.67099 | 19.88673 | 20561 ft | 332 kts | 114° |
| 2026-04-30 22:27 | 52.65965 | 19.91983 | 20235 ft | 331 kts | 115° |
| 2026-04-30 22:27 | 52.64829 | 19.95284 | 19910 ft | 331 kts | 115° |
| 2026-04-30 22:27 | 52.62558 | 20.01831 | 19265 ft | 328 kts | 115° |
| 2026-04-30 22:28 | 52.60373 | 20.08369 | 18612 ft | 324 kts | 114° |
| 2026-04-30 22:28 | 52.59292 | 20.11609 | 18286 ft | 322 kts | 114° |
| 2026-04-30 22:29 | 52.55924 | 20.21131 | 17315 ft | 319 kts | 116° |
| 2026-04-30 22:29 | 52.54803 | 20.24267 | 16990 ft | 318 kts | 116° |
| 2026-04-30 22:30 | 52.50383 | 20.36722 | 15689 ft | 312 kts | 115° |
| 2026-04-30 22:31 | 52.47179 | 20.45961 | 14720 ft | 309 kts | 116° |
| 2026-04-30 22:32 | 52.44039 | 20.54958 | 13813 ft | 298 kts | 116° |
| 2026-04-30 22:32 | 52.42009 | 20.60830 | 13217 ft | 294 kts | 116° |
| 2026-04-30 22:33 | 52.38966 | 20.69477 | 12383 ft | 289 kts | 116° |
| 2026-04-30 22:33 | 52.36968 | 20.75127 | 11880 ft | 285 kts | 116° |
| 2026-04-30 22:34 | 52.34024 | 20.83444 | 11132 ft | 281 kts | 117° |
| 2026-04-30 22:35 | 52.32066 | 20.88973 | 10626 ft | 280 kts | 117° |
| 2026-04-30 22:36 | 52.28162 | 20.99932 | 9634 ft | 277 kts | 118° |
| 2026-04-30 22:36 | 52.27075 | 21.02521 | 9381 ft | 278 kts | 131° |
| 2026-04-30 22:37 | 52.21985 | 21.07049 | 8618 ft | 277 kts | 148° |
| 2026-04-30 22:37 | 52.20323 | 21.08636 | 8370 ft | 277 kts | 149° |
| 2026-04-30 22:37 | 52.16954 | 21.11627 | 7863 ft | 274 kts | 151° |
| 2026-04-30 22:38 | 52.13600 | 21.14543 | 7312 ft | 272 kts | 150° |
| 2026-04-30 22:38 | 52.10272 | 21.17467 | 6761 ft | 270 kts | 150° |
| 2026-04-30 22:39 | 52.08623 | 21.18915 | 6486 ft | 269 kts | 150° |
| 2026-04-30 22:39 | 52.03704 | 21.23212 | 5658 ft | 265 kts | 151° |
| 2026-04-30 22:40 | 51.98866 | 21.27413 | 5098 ft | 252 kts | 151° |
| 2026-04-30 22:41 | 51.94214 | 21.31430 | 4500 ft | 256 kts | 152° |
| 2026-04-30 22:41 | 51.90924 | 21.33071 | 4173 ft | 248 kts | 192° |
| 2026-04-30 22:42 | 51.89648 | 21.24424 | 3993 ft | 227 kts | 319° |
| 2026-04-30 22:43 | 51.92103 | 21.21459 | 3989 ft | 217 kts | 321° |
| 2026-04-30 22:43 | 51.94340 | 21.18242 | 3984 ft | 214 kts | 315° |
| 2026-04-30 22:44 | 51.96473 | 21.14865 | 3983 ft | 214 kts | 317° |
| 2026-04-30 22:45 | 52.01920 | 21.11691 | 3322 ft | 217 kts | 324° |
| 2026-04-30 22:45 | 52.04207 | 21.08889 | 3049 ft | 199 kts | 322° |
| 2026-04-30 22:46 | 52.06208 | 21.06480 | 2640 ft | 162 kts | 326° |
| 2026-04-30 22:47 | 52.09308 | 21.03251 | 1762 ft | 114 kts | 328° |
| 2026-04-30 22:47 | 52.10664 | 21.01993 | 1403 ft | 111 kts | 329° |
| 2026-04-30 22:48 | 52.12047 | 21.00674 | 1193 ft | 113 kts | 331° |
| 2026-04-30 22:49 | 52.13933 | 20.99023 | 703 ft | 96 kts | 332° |
| 2026-04-30 22:49 | 52.15644 | 20.97527 | 359 ft | 86 kts | 331° |
| 2026-04-30 22:50 | 52.17105 | 20.96246 | 332 ft | 42 kts | 331° |
| 2026-04-30 22:51 | 52.17670 | 20.95753 | 329 ft | 42 kts | 332° |
| 2026-04-30 22:51 | 52.17942 | 20.95859 | 331 ft | 17 kts | 60° |
| 2026-04-30 22:52 | 52.18001 | 20.96036 | 333 ft | 18 kts | 72° |
| 2026-04-30 22:52 | 52.18018 | 20.96212 | 333 ft | 5 kts | 79° |
| 2026-04-30 22:53 | 52.18051 | 20.96175 | 333 ft | 1 kts | 225° |
| 2026-04-30 22:53 | 52.18049 | 20.96173 | 333 ft | 0 kts | 202° |